createdAt,value
2022-10-19T00:03:01.616Z,11.19
2022-10-19T00:05:47.189Z,11.31
2022-10-19T00:08:33.112Z,11.21
2022-10-19T00:11:19.389Z,11.00
2022-10-19T00:14:05.262Z,11.23
2022-10-19T00:16:52.571Z,11.27
2022-10-19T00:19:38.189Z,11.22
2022-10-19T00:22:23.922Z,11.14
2022-10-19T00:25:09.737Z,11.35
2022-10-19T00:27:55.520Z,11.30
2022-10-19T00:30:41.353Z,11.36
2022-10-19T00:33:26.993Z,11.26
2022-10-19T00:36:21.554Z,11.35
2022-10-19T00:39:10.915Z,11.31
2022-10-19T00:41:56.751Z,11.33
2022-10-19T00:44:42.637Z,11.35
2022-10-19T00:47:29.173Z,11.23
2022-10-19T00:50:15.190Z,11.33
2022-10-19T00:53:01.481Z,11.32
2022-10-19T00:55:47.174Z,11.30
2022-10-19T00:58:33.244Z,11.36
2022-10-19T01:01:21.027Z,11.20
2022-10-19T01:04:06.846Z,11.23
2022-10-19T01:06:55.571Z,11.38
2022-10-19T01:09:41.348Z,11.28
2022-10-19T01:12:56.034Z,11.25
2022-10-19T01:15:47.478Z,11.38
2022-10-19T01:18:45.082Z,11.38
2022-10-19T01:22:08.538Z,11.25
2022-10-19T01:25:09.890Z,11.23
2022-10-19T01:28:15.357Z,11.33
2022-10-19T01:31:25.227Z,11.32
2022-10-19T01:34:32.570Z,11.31
2022-10-19T01:37:23.235Z,11.21
2022-10-19T01:40:13.080Z,11.23
2022-10-19T01:43:03.615Z,11.20
2022-10-19T01:45:55.113Z,11.31
2022-10-19T01:48:48.573Z,11.27
2022-10-19T01:51:36.312Z,11.32
2022-10-19T01:54:22.846Z,11.22
2022-10-19T01:57:11.642Z,11.30
2022-10-19T01:59:58.274Z,11.20
2022-10-19T02:02:47.984Z,11.19
2022-10-19T02:05:34.803Z,11.27
2022-10-19T02:08:29.212Z,11.29
2022-10-19T02:11:16.010Z,11.26
2022-10-19T02:14:07.782Z,11.26
2022-10-19T02:16:59.029Z,11.24
2022-10-19T02:19:45.371Z,11.26
2022-10-19T02:22:31.572Z,11.22
2022-10-19T02:25:17.514Z,11.27
2022-10-19T02:28:04.551Z,11.27
2022-10-19T02:30:50.651Z,11.22
2022-10-19T02:33:36.992Z,11.07
2022-10-19T02:36:23.127Z,11.20
2022-10-19T02:39:09.023Z,11.14
2022-10-19T02:42:11.787Z,10.90
2022-10-19T02:45:00.575Z,10.99
2022-10-19T02:47:54.931Z,11.10
2022-10-19T02:50:45.126Z,11.07
2022-10-19T02:53:31.366Z,10.96
2022-10-19T02:56:16.800Z,10.96
2022-10-19T02:59:03.528Z,10.98
2022-10-19T03:01:49.143Z,11.04
2022-10-19T03:04:35.176Z,11.05
2022-10-19T03:07:21.748Z,10.91
2022-10-19T03:10:07.726Z,11.07
2022-10-19T03:12:53.232Z,10.95
2022-10-19T03:15:39.002Z,11.04
2022-10-19T03:18:24.560Z,10.88
2022-10-19T03:21:12.899Z,11.00
2022-10-19T03:24:00.790Z,10.94
2022-10-19T03:26:46.883Z,10.75
2022-10-19T03:29:32.531Z,10.89
2022-10-19T03:32:18.512Z,11.00
2022-10-19T03:35:04.821Z,10.83
2022-10-19T03:37:50.539Z,10.81
2022-10-19T03:40:36.352Z,10.86
2022-10-19T03:43:22.105Z,10.87
2022-10-19T03:46:08.618Z,10.86
2022-10-19T03:48:55.076Z,10.78
2022-10-19T03:51:40.843Z,10.87
2022-10-19T03:54:27.574Z,10.76
2022-10-19T03:57:13.523Z,10.88
2022-10-19T03:59:59.812Z,10.70
2022-10-19T04:02:45.645Z,10.73
2022-10-19T04:05:31.405Z,10.71
2022-10-19T04:08:17.203Z,10.84
2022-10-19T04:11:07.965Z,10.80
2022-10-19T04:13:54.325Z,10.75
2022-10-19T04:16:40.120Z,10.70
2022-10-19T04:19:25.610Z,10.77
2022-10-19T04:22:11.125Z,10.69
2022-10-19T04:24:56.727Z,10.80
2022-10-19T04:27:42.546Z,10.84
2022-10-19T04:30:28.115Z,10.83
2022-10-19T04:33:14.293Z,10.75
2022-10-19T04:36:05.139Z,10.72
2022-10-19T04:38:50.870Z,10.77
2022-10-19T04:41:37.884Z,10.72
2022-10-19T04:47:14.107Z,10.66
2022-10-19T04:49:59.664Z,10.61
2022-10-19T04:52:45.873Z,10.70
2022-10-19T04:55:31.600Z,10.59
2022-10-19T04:58:17.276Z,10.69
2022-10-19T05:01:17.273Z,10.68
2022-10-19T05:04:03.619Z,10.65
2022-10-19T05:06:49.655Z,10.72
2022-10-19T05:09:35.213Z,10.61
2022-10-19T05:12:21.267Z,10.70
2022-10-19T05:15:07.295Z,10.73
2022-10-19T05:17:54.399Z,10.72
2022-10-19T05:20:40.384Z,10.65
2022-10-19T05:23:26.302Z,10.64
2022-10-19T05:26:17.443Z,10.67
2022-10-19T05:29:04.522Z,10.63
2022-10-19T05:31:51.036Z,10.53
2022-10-19T05:34:36.594Z,10.54
2022-10-19T05:37:22.489Z,10.55
2022-10-19T05:40:09.480Z,10.65
2022-10-19T05:42:55.575Z,10.58
2022-10-19T05:45:42.016Z,10.66
2022-10-19T05:48:32.941Z,10.63
2022-10-19T05:51:20.266Z,10.65
2022-10-19T05:54:06.507Z,10.51
2022-10-19T05:56:52.708Z,10.67
2022-10-19T05:59:38.160Z,10.63
2022-10-19T06:02:24.399Z,10.56
2022-10-19T06:05:10.282Z,10.64
2022-10-19T06:07:55.909Z,10.66
2022-10-19T06:10:41.416Z,10.53
2022-10-19T06:13:27.284Z,10.67
2022-10-19T06:16:18.289Z,10.72
2022-10-19T06:19:05.282Z,10.59
2022-10-19T06:21:50.906Z,10.70
2022-10-19T06:24:36.908Z,10.66
2022-10-19T06:27:22.821Z,10.77
2022-10-19T06:30:09.229Z,10.73
2022-10-19T06:32:55.016Z,10.84
2022-10-19T06:35:42.991Z,10.74
2022-10-19T06:38:28.606Z,10.74
2022-10-19T06:41:14.198Z,10.85
2022-10-19T06:44:00.172Z,10.78
2022-10-19T06:46:46.588Z,10.74
2022-10-19T06:49:32.085Z,10.84
2022-10-19T06:52:17.952Z,10.87
2022-10-19T06:55:04.004Z,10.91
2022-10-19T06:57:50.216Z,10.94
2022-10-19T07:00:36.671Z,10.86
2022-10-19T07:03:22.216Z,10.97
2022-10-19T07:06:09.949Z,11.00
2022-10-19T07:08:55.847Z,11.06
2022-10-19T07:11:45.726Z,11.02
2022-10-19T07:14:38.566Z,10.90
2022-10-19T07:17:24.050Z,10.94
2022-10-19T07:20:10.773Z,11.13
2022-10-19T07:22:56.543Z,11.03
2022-10-19T07:25:42.505Z,11.13
2022-10-19T07:28:29.476Z,11.07
2022-10-19T07:31:20.684Z,11.17
2022-10-19T07:34:06.590Z,11.23
2022-10-19T07:36:52.648Z,11.17
2022-10-19T07:39:38.525Z,11.16
2022-10-19T07:42:24.584Z,11.26
2022-10-19T07:45:10.635Z,11.35
2022-10-19T07:47:56.744Z,11.42
2022-10-19T07:50:47.924Z,11.48
2022-10-19T07:53:34.753Z,11.36
2022-10-19T07:56:23.017Z,11.39
2022-10-19T07:59:09.941Z,11.51
2022-10-19T08:01:57.128Z,11.47
2022-10-19T08:04:59.393Z,11.46
2022-10-19T08:07:46.995Z,11.42
2022-10-19T08:10:33.208Z,11.40
2022-10-19T08:13:18.780Z,11.45
2022-10-19T08:16:04.974Z,11.64
2022-10-19T08:18:51.166Z,11.58
2022-10-19T08:21:38.129Z,11.74
2022-10-19T08:24:23.589Z,11.71
2022-10-19T08:27:09.375Z,11.63
2022-10-19T08:29:55.260Z,11.65
2022-10-19T08:32:41.221Z,11.70
2022-10-19T08:35:27.768Z,11.76
2022-10-19T08:38:13.360Z,11.72
2022-10-19T08:41:08.940Z,11.73
2022-10-19T08:44:18.698Z,11.77
2022-10-19T08:47:38.668Z,11.86
2022-10-19T08:50:44.402Z,11.86
2022-10-19T08:53:40.239Z,11.85
2022-10-19T08:56:50.566Z,11.89
2022-10-19T08:59:40.699Z,11.88
2022-10-19T09:02:33.019Z,11.87
2022-10-19T09:05:34.395Z,11.91
2022-10-19T09:08:20.780Z,11.77
2022-10-19T09:11:09.773Z,11.80
2022-10-19T09:14:05.630Z,11.95
2022-10-19T09:16:52.010Z,11.84
2022-10-19T09:19:38.380Z,11.92
2022-10-19T09:22:29.797Z,11.95
2022-10-19T09:25:21.772Z,11.92
2022-10-19T09:28:25.693Z,11.91
2022-10-19T09:31:29.123Z,11.92
2022-10-19T09:34:17.869Z,11.93
2022-10-19T09:37:04.441Z,11.90
2022-10-19T09:39:54.125Z,12.00
2022-10-19T09:42:40.979Z,11.84
2022-10-19T09:45:35.208Z,11.95
2022-10-19T09:48:29.888Z,11.85
2022-10-19T09:51:17.260Z,11.84
2022-10-19T09:54:04.302Z,11.91
2022-10-19T09:56:54.430Z,11.95
2022-10-19T09:59:42.419Z,11.94
2022-10-19T10:02:31.029Z,11.95
2022-10-19T10:05:16.794Z,11.95
2022-10-19T10:08:04.359Z,12.18
2022-10-19T10:11:12.397Z,12.11
2022-10-19T10:14:00.656Z,12.25
2022-10-19T10:16:46.424Z,12.10
2022-10-19T10:19:33.941Z,12.21
2022-10-19T10:22:26.053Z,12.13
2022-10-19T10:25:16.275Z,12.06
2022-10-19T10:28:18.376Z,11.86
2022-10-19T10:31:07.905Z,11.80
2022-10-19T10:34:10.825Z,11.91
2022-10-19T10:37:11.312Z,11.93
2022-10-19T10:40:01.755Z,11.96
2022-10-19T10:42:52.320Z,11.82
2022-10-19T10:45:41.161Z,11.80
2022-10-19T10:48:41.458Z,11.79
2022-10-19T10:51:32.030Z,11.80
2022-10-19T10:54:30.426Z,11.74
2022-10-19T10:57:19.981Z,11.89
2022-10-19T11:00:12.262Z,11.95
2022-10-19T11:03:13.467Z,12.05
2022-10-19T11:06:05.368Z,11.88
2022-10-19T11:08:57.858Z,12.02
2022-10-19T11:11:46.232Z,12.07
2022-10-19T11:14:52.531Z,12.22
2022-10-19T11:17:41.449Z,12.38
2022-10-19T11:20:30.363Z,12.43
2022-10-19T11:23:41.061Z,12.56
2022-10-19T11:26:45.166Z,12.50
2022-10-19T11:29:35.830Z,12.43
2022-10-19T11:32:47.129Z,12.39
2022-10-19T11:35:45.052Z,12.51
2022-10-19T11:38:37.030Z,12.52
2022-10-19T11:41:44.645Z,12.28
2022-10-19T11:44:36.857Z,12.45
2022-10-19T11:48:02.612Z,12.53
2022-10-19T11:50:54.048Z,12.52
2022-10-19T11:53:58.516Z,12.52
2022-10-19T11:57:04.073Z,12.49
2022-10-19T11:59:50.843Z,12.48
2022-10-19T12:02:39.697Z,12.53
2022-10-19T12:05:28.013Z,12.60
2022-10-19T12:08:42.760Z,12.59
2022-10-19T12:11:49.996Z,12.65
2022-10-19T12:14:37.281Z,12.52
2022-10-19T12:17:29.614Z,12.43
2022-10-19T12:20:41.389Z,12.58
2022-10-19T12:23:38.577Z,12.49
2022-10-19T12:26:24.993Z,12.52
2022-10-19T12:29:16.447Z,12.43
2022-10-19T12:32:03.503Z,12.50
2022-10-19T12:35:00.447Z,12.45
2022-10-19T12:38:02.883Z,12.48
2022-10-19T12:40:54.261Z,12.45
2022-10-19T12:43:55.999Z,12.48
2022-10-19T12:46:47.012Z,12.44
2022-10-19T12:49:35.894Z,12.63
2022-10-19T12:52:42.263Z,12.58
2022-10-19T12:55:34.712Z,12.61
2022-10-19T12:58:21.966Z,12.73
2022-10-19T13:01:09.531Z,12.67
2022-10-19T13:04:13.850Z,12.71
2022-10-19T13:07:03.232Z,12.90
2022-10-19T13:09:49.350Z,12.83
2022-10-19T13:12:44.176Z,12.85
2022-10-19T13:15:36.471Z,12.88
2022-10-19T13:19:02.193Z,12.79
2022-10-19T13:22:12.870Z,12.45
2022-10-19T13:25:16.519Z,12.55
2022-10-19T13:28:07.992Z,12.33
2022-10-19T13:31:00.489Z,12.32
2022-10-19T13:33:52.244Z,12.20
2022-10-19T13:36:40.215Z,11.95
2022-10-19T13:39:27.769Z,12.01
2022-10-19T13:42:24.230Z,11.94
2022-10-19T13:45:21.953Z,11.92
2022-10-19T13:48:18.852Z,11.98
2022-10-19T13:51:11.227Z,11.98
2022-10-19T13:54:23.815Z,12.07
2022-10-19T13:57:18.721Z,12.05
2022-10-19T14:00:18.131Z,11.93
2022-10-19T14:03:19.328Z,11.95
2022-10-19T14:06:27.656Z,11.86
2022-10-19T14:09:29.511Z,12.05
2022-10-19T14:12:24.446Z,12.01
2022-10-19T14:15:25.787Z,12.12
2022-10-19T14:18:22.975Z,12.06
2022-10-19T14:21:09.838Z,11.97
2022-10-19T14:23:55.740Z,11.86
2022-10-19T14:26:41.290Z,11.89
2022-10-19T14:29:27.481Z,11.82
2022-10-19T14:32:13.882Z,11.76
2022-10-19T14:35:06.844Z,11.65
2022-10-19T14:37:52.880Z,11.52
2022-10-19T14:40:40.735Z,11.35
2022-10-19T14:43:30.424Z,11.22
2022-10-19T14:46:16.954Z,10.99
2022-10-19T14:49:06.164Z,10.94
2022-10-19T14:51:55.377Z,10.79
2022-10-19T14:54:43.751Z,10.73
2022-10-19T14:57:33.088Z,10.57
2022-10-19T15:00:21.978Z,10.61
2022-10-19T15:03:11.463Z,10.57
2022-10-19T15:06:01.671Z,10.44
2022-10-19T15:08:51.079Z,10.48
2022-10-19T15:11:39.459Z,10.36
2022-10-19T15:14:30.821Z,10.30
2022-10-19T15:17:26.200Z,10.40
2022-10-19T15:20:26.446Z,10.20
2022-10-19T15:23:33.728Z,10.24
2022-10-19T15:26:52.326Z,10.16
2022-10-19T15:30:04.874Z,10.10
2022-10-19T15:33:04.325Z,10.03
2022-10-19T15:35:50.642Z,10.00
2022-10-19T15:38:36.421Z,9.84
2022-10-19T15:41:30.543Z,9.88
2022-10-19T15:44:51.934Z,9.84
2022-10-19T15:47:37.476Z,9.68
2022-10-19T15:50:37.950Z,9.77
2022-10-19T15:53:25.088Z,9.62
2022-10-19T15:56:13.585Z,9.55
2022-10-19T15:59:04.125Z,9.58
2022-10-19T16:01:55.001Z,9.43
2022-10-19T16:04:42.051Z,9.43
2022-10-19T16:07:30.710Z,9.44
2022-10-19T16:10:19.186Z,9.39
2022-10-19T16:13:05.088Z,9.32
2022-10-19T16:16:01.296Z,9.21
2022-10-19T16:18:56.991Z,9.24
2022-10-19T16:21:45.639Z,9.06
2022-10-19T16:24:33.619Z,9.03
2022-10-19T16:27:19.133Z,9.09
2022-10-19T16:30:05.836Z,8.95
2022-10-19T16:32:51.416Z,8.99
2022-10-19T16:35:37.914Z,8.93
2022-10-19T16:38:23.560Z,8.86
2022-10-19T16:41:10.570Z,8.81
2022-10-19T16:43:56.810Z,8.75
2022-10-19T16:46:42.844Z,8.72
2022-10-19T16:49:28.529Z,8.66
2022-10-19T16:52:14.461Z,8.52
2022-10-19T16:55:00.139Z,8.42
2022-10-19T16:57:45.865Z,8.51
2022-10-19T17:00:31.765Z,8.34
2022-10-19T17:03:17.463Z,8.27
2022-10-19T17:06:05.224Z,8.35
2022-10-19T17:09:29.930Z,8.20
2022-10-19T17:11:56.494Z,8.29
2022-10-19T17:14:42.879Z,8.25
2022-10-19T17:17:28.683Z,8.22
2022-10-19T17:20:15.772Z,8.21
2022-10-19T17:23:01.621Z,8.11
2022-10-19T17:25:48.389Z,8.14
2022-10-19T17:28:35.196Z,8.09
2022-10-19T17:31:21.194Z,8.06
2022-10-19T17:34:07.227Z,7.97
2022-10-19T17:36:52.880Z,7.96
2022-10-19T17:39:38.402Z,7.92
2022-10-19T17:42:24.122Z,7.91
2022-10-19T17:45:10.139Z,7.89
2022-10-19T17:47:56.525Z,7.89
2022-10-19T17:50:42.245Z,7.92
2022-10-19T17:53:29.049Z,7.86
2022-10-19T17:56:19.369Z,7.79
2022-10-19T17:59:08.195Z,7.76
2022-10-19T18:01:54.201Z,7.62
2022-10-19T18:04:40.329Z,7.68
2022-10-19T18:07:26.568Z,7.52
2022-10-19T18:10:13.444Z,7.50
2022-10-19T18:12:59.165Z,7.54
2022-10-19T18:15:45.081Z,7.48
2022-10-19T18:18:32.932Z,7.34
2022-10-19T18:21:21.218Z,7.35
2022-10-19T18:24:14.283Z,7.25
2022-10-19T18:27:01.521Z,7.11
2022-10-19T18:29:47.387Z,7.15
2022-10-19T18:32:33.586Z,7.11
2022-10-19T18:35:19.594Z,7.06
2022-10-19T18:38:06.602Z,7.07
2022-10-19T18:40:53.426Z,7.09
2022-10-19T18:43:40.646Z,7.06
2022-10-19T18:46:26.705Z,7.05
2022-10-19T18:49:13.089Z,6.94
2022-10-19T18:51:58.676Z,6.91
2022-10-19T18:54:44.874Z,6.93
2022-10-19T18:57:31.868Z,6.88
2022-10-19T19:00:17.610Z,6.96
2022-10-19T19:03:03.582Z,6.95
2022-10-19T19:05:50.061Z,6.87
2022-10-19T19:08:36.502Z,6.78
2022-10-19T19:11:24.656Z,6.89
2022-10-19T19:14:15.973Z,6.80
2022-10-19T19:17:02.002Z,6.71
2022-10-19T19:19:47.423Z,6.66
2022-10-19T19:22:34.392Z,6.64
2022-10-19T19:25:20.667Z,6.51
2022-10-19T19:28:06.593Z,6.48
2022-10-19T19:30:52.525Z,6.38
2022-10-19T19:33:39.112Z,6.37
2022-10-19T19:36:25.103Z,6.32
2022-10-19T19:39:10.891Z,6.36
2022-10-19T19:41:56.690Z,6.33
2022-10-19T19:44:42.961Z,6.55
2022-10-19T19:47:28.504Z,6.44
2022-10-19T19:50:14.962Z,6.45
2022-10-19T19:53:02.039Z,6.53
2022-10-19T19:55:48.958Z,6.48
2022-10-19T19:58:35.058Z,6.45
2022-10-19T20:01:21.649Z,6.48
2022-10-19T20:04:07.498Z,6.54
2022-10-19T20:06:53.515Z,6.44
2022-10-19T20:09:39.562Z,6.49
2022-10-19T20:12:25.737Z,6.35
2022-10-19T20:15:12.876Z,6.46
2022-10-19T20:17:59.069Z,6.34
2022-10-19T20:20:44.522Z,6.19
2022-10-19T20:23:31.183Z,6.25
2022-10-19T20:26:18.756Z,6.15
2022-10-19T20:29:05.221Z,6.16
2022-10-19T20:31:50.801Z,6.09
2022-10-19T20:34:36.893Z,6.08
2022-10-19T20:37:22.447Z,6.02
2022-10-19T20:40:09.370Z,5.98
2022-10-19T20:42:56.528Z,5.74
2022-10-19T20:45:42.948Z,5.87
2022-10-19T20:48:29.403Z,5.94
2022-10-19T20:51:29.121Z,5.78
2022-10-19T20:54:17.402Z,5.62
2022-10-19T20:57:03.821Z,5.39
2022-10-19T20:59:49.902Z,5.38
2022-10-19T21:02:36.097Z,5.16
2022-10-19T21:05:23.090Z,5.20
2022-10-19T21:08:10.434Z,5.33
2022-10-19T21:10:56.743Z,5.39
2022-10-19T21:13:43.120Z,5.46
2022-10-19T21:16:35.472Z,5.53
2022-10-19T21:19:23.818Z,5.33
2022-10-19T21:22:09.392Z,5.35
2022-10-19T21:24:55.771Z,5.51
2022-10-19T21:27:41.862Z,5.57
2022-10-19T21:30:27.909Z,5.57
2022-10-19T21:33:14.471Z,5.71
2022-10-19T21:36:02.855Z,5.68
2022-10-19T21:38:48.915Z,5.78
2022-10-19T21:41:34.583Z,5.74
2022-10-19T21:44:22.166Z,5.56
2022-10-19T21:47:08.019Z,5.41
2022-10-19T21:49:53.749Z,5.40
2022-10-19T21:52:39.638Z,5.29
2022-10-19T21:55:25.613Z,5.34
2022-10-19T21:58:11.666Z,5.45
2022-10-19T22:01:04.333Z,5.53
2022-10-19T22:03:54.306Z,5.66
2022-10-19T22:06:40.709Z,5.73
2022-10-19T22:09:26.793Z,5.59
2022-10-19T22:15:03.674Z,5.68
2022-10-19T22:17:50.075Z,5.57
2022-10-19T22:20:37.200Z,5.53
2022-10-19T22:23:23.095Z,5.61
2022-10-19T22:26:17.570Z,5.44
2022-10-19T22:29:04.557Z,5.31
2022-10-19T22:31:50.466Z,5.12
2022-10-19T22:34:36.904Z,5.13
2022-10-19T22:37:23.249Z,4.96
2022-10-19T22:40:10.045Z,4.90
2022-10-19T22:42:55.672Z,4.71
2022-10-19T22:45:41.107Z,4.68
2022-10-19T22:48:27.201Z,4.71
2022-10-19T22:51:12.833Z,4.82
2022-10-19T22:53:58.825Z,4.75
2022-10-19T22:56:44.557Z,4.61
2022-10-19T22:59:30.569Z,4.52
2022-10-19T23:02:16.066Z,4.42
2022-10-19T23:05:01.773Z,4.49
2022-10-19T23:07:47.667Z,4.50
2022-10-19T23:10:33.878Z,4.55
2022-10-19T23:13:20.480Z,4.43
2022-10-19T23:16:06.700Z,4.38
2022-10-19T23:18:52.567Z,4.33
2022-10-19T23:21:38.177Z,4.37
2022-10-19T23:24:24.683Z,4.21
2022-10-19T23:27:10.732Z,4.20
2022-10-19T23:29:56.884Z,4.22
2022-10-19T23:32:42.532Z,4.26
2022-10-19T23:35:28.326Z,4.20
2022-10-19T23:38:14.260Z,4.16
2022-10-19T23:41:00.003Z,4.13
2022-10-19T23:43:46.606Z,4.26
2022-10-19T23:46:32.481Z,4.03
2022-10-19T23:49:17.957Z,4.01
2022-10-19T23:52:03.639Z,3.99
2022-10-19T23:54:49.334Z,3.98
2022-10-19T23:57:35.641Z,4.12
